createdAt,value
2017-06-02T00:00:57.517Z,15.2
2017-06-02T00:02:05.064Z,15.2
2017-06-02T00:03:12.566Z,15.2
2017-06-02T00:04:20.055Z,15.2
2017-06-02T00:05:27.202Z,15.1
2017-06-02T00:06:34.981Z,15.2
2017-06-02T00:07:42.463Z,15.2
2017-06-02T00:08:49.939Z,15.2
2017-06-02T00:09:57.418Z,15.2
2017-06-02T00:11:04.903Z,15
2017-06-02T00:12:12.682Z,15
2017-06-02T00:13:20.173Z,15
2017-06-02T00:14:27.655Z,14.9
2017-06-02T00:15:35.136Z,14.9
2017-06-02T00:16:42.852Z,14.9
2017-06-02T00:17:50.641Z,14.9
2017-06-02T00:18:58.124Z,14.9
2017-06-02T00:20:05.604Z,14.8
2017-06-02T00:21:13.094Z,14.9
2017-06-02T00:22:20.579Z,14.8
2017-06-02T00:23:28.427Z,14.8
2017-06-02T00:24:35.909Z,14.8
2017-06-02T00:25:43.392Z,14.8
2017-06-02T00:26:50.873Z,14.8
2017-06-02T00:27:58.353Z,14.8
2017-06-02T00:29:06.188Z,14.8
2017-06-02T00:30:13.677Z,14.8
2017-06-02T00:31:21.157Z,14.8
2017-06-02T00:32:28.308Z,14.7
2017-06-02T00:33:35.791Z,14.7
2017-06-02T00:34:43.577Z,14.7
2017-06-02T00:35:50.724Z,14.6
2017-06-02T00:36:58.230Z,14.7
2017-06-02T00:38:05.709Z,14.6
2017-06-02T00:39:13.197Z,14.6
2017-06-02T00:40:21.029Z,14.6
2017-06-02T00:41:28.513Z,14.5
2017-06-02T00:42:35.996Z,14.5
2017-06-02T00:43:43.483Z,14.5
2017-06-02T00:44:50.963Z,14.5
2017-06-02T00:45:58.822Z,14.4
2017-06-02T00:47:06.305Z,14.4
2017-06-02T00:48:14.017Z,14.4
2017-06-02T00:49:21.559Z,14.3
2017-06-02T00:50:29.094Z,14.3
2017-06-02T00:51:36.879Z,14.4
2017-06-02T00:52:44.370Z,14.4
2017-06-02T00:53:51.852Z,14.4
2017-06-02T00:54:59.046Z,14.3
2017-06-02T00:56:06.533Z,14.3
2017-06-02T00:57:14.367Z,14.3
2017-06-02T00:58:21.850Z,14.2
2017-06-02T00:59:29.341Z,14.3
2017-06-02T01:00:36.173Z,14.3
2017-06-02T01:01:43.657Z,14.2
2017-06-02T01:02:51.494Z,14.2
2017-06-02T01:03:58.653Z,14.2
2017-06-02T01:05:06.146Z,14.1
2017-06-02T01:06:13.638Z,14.1
2017-06-02T01:07:21.122Z,14.1
2017-06-02T01:08:28.961Z,14.1
2017-06-02T01:09:36.648Z,14.1
2017-06-02T01:10:44.141Z,14.1
2017-06-02T01:11:51.634Z,13.9
2017-06-02T01:12:59.140Z,13.8
2017-06-02T01:14:06.593Z,13.9
2017-06-02T01:15:14.093Z,13.9
2017-06-02T01:16:21.580Z,13.9
2017-06-02T01:17:29.063Z,13.9
2017-06-02T01:18:36.551Z,14
2017-06-02T01:19:44.381Z,14
2017-06-02T01:20:51.866Z,13.9
2017-06-02T01:21:59.353Z,13.9
2017-06-02T01:23:06.843Z,13.8
2017-06-02T01:24:13.994Z,13.8
2017-06-02T01:25:21.780Z,13.8
2017-06-02T01:26:29.258Z,13.8
2017-06-02T01:27:36.746Z,13.8
2017-06-02T01:28:43.897Z,13.8
2017-06-02T01:29:51.049Z,13.7
2017-06-02T01:30:58.886Z,13.8
2017-06-02T01:32:06.364Z,13.7
2017-06-02T01:33:13.532Z,13.7
2017-06-02T01:34:21.011Z,13.7
2017-06-02T01:35:28.492Z,13.7
2017-06-02T01:36:36.272Z,13.7
2017-06-02T01:37:43.751Z,13.7
2017-06-02T01:38:51.229Z,13.6
2017-06-02T01:39:58.394Z,13.6
2017-06-02T01:41:05.878Z,13.6
2017-06-02T01:42:13.708Z,13.6
2017-06-02T01:43:21.193Z,13.5
2017-06-02T01:44:28.679Z,13.6
2017-06-02T01:45:36.167Z,13.5
2017-06-02T01:46:43.650Z,13.5
2017-06-02T01:47:51.486Z,13.5
2017-06-02T01:48:58.969Z,13.5
2017-06-02T01:50:06.453Z,13.5
2017-06-02T01:51:13.932Z,13.5
2017-06-02T01:52:21.083Z,13.5
2017-06-02T01:53:28.861Z,13.4
2017-06-02T01:54:36.349Z,13.4
2017-06-02T01:55:43.511Z,13.3
2017-06-02T01:56:50.995Z,13.4
2017-06-02T01:57:58.156Z,13.4
2017-06-02T01:59:05.994Z,13.4
2017-06-02T02:00:13.476Z,13.4
2017-06-02T02:01:20.959Z,13.4
2017-06-02T02:02:28.456Z,13.4
2017-06-02T02:03:35.941Z,13.4
2017-06-02T02:04:43.398Z,13.3
2017-06-02T02:05:50.892Z,13.4
2017-06-02T02:06:58.374Z,13.4
2017-06-02T02:08:06.106Z,13.4
2017-06-02T02:09:13.585Z,13.4
2017-06-02T02:10:21.417Z,13.3
2017-06-02T02:11:28.576Z,13.4
2017-06-02T02:12:36.064Z,13.3
2017-06-02T02:13:43.216Z,13.3
2017-06-02T02:14:50.700Z,13.4
2017-06-02T02:15:58.160Z,13.4
2017-06-02T02:17:05.639Z,13.4
2017-06-02T02:18:13.124Z,13.3
2017-06-02T02:19:20.611Z,13.2
2017-06-02T02:20:27.777Z,13.2
2017-06-02T02:21:35.283Z,13.2
2017-06-02T02:22:42.769Z,13.1
2017-06-02T02:23:49.923Z,13.1
2017-06-02T02:24:57.632Z,13.1
2017-06-02T02:26:05.119Z,13.1
2017-06-02T02:27:12.621Z,13.1
2017-06-02T02:28:19.776Z,13.2
2017-06-02T02:29:26.940Z,13.1
2017-06-02T02:30:34.423Z,13.1
2017-06-02T02:31:41.910Z,13.1
2017-06-02T02:32:49.747Z,13.1
2017-06-02T02:33:57.229Z,13.1
2017-06-02T02:35:04.712Z,13.1
2017-06-02T02:36:12.192Z,13.1
2017-06-02T02:37:19.675Z,13.1
2017-06-02T02:38:27.182Z,13.1
2017-06-02T02:39:34.664Z,13.1
2017-06-02T02:40:42.148Z,13.1
2017-06-02T02:41:49.629Z,13.1
2017-06-02T02:42:56.788Z,13.1
2017-06-02T02:44:04.579Z,13.1
2017-06-02T02:45:12.061Z,13.1
2017-06-02T02:46:19.543Z,13.1
2017-06-02T02:47:26.690Z,13.1
2017-06-02T02:48:34.179Z,13.1
2017-06-02T02:49:42.009Z,13.1
2017-06-02T02:50:49.501Z,13
2017-06-02T02:51:56.248Z,13
2017-06-02T02:53:03.731Z,13
2017-06-02T02:54:10.879Z,13.1
2017-06-02T02:55:18.379Z,13.1
2017-06-02T02:56:25.857Z,13
2017-06-02T02:57:33.345Z,13.1
2017-06-02T02:58:40.832Z,13
2017-06-02T02:59:48.321Z,13
2017-06-02T03:00:55.825Z,13
2017-06-02T03:02:03.305Z,13
2017-06-02T03:03:10.452Z,13
2017-06-02T03:04:17.931Z,13
2017-06-02T03:05:25.088Z,13
2017-06-02T03:06:32.923Z,13
2017-06-02T03:07:40.408Z,13
2017-06-02T03:08:47.905Z,13
2017-06-02T03:09:55.058Z,13
2017-06-02T03:11:02.542Z,13
2017-06-02T03:12:10.044Z,13
2017-06-02T03:13:17.522Z,13
2017-06-02T03:14:25.005Z,13.1
2017-06-02T03:15:32.486Z,13
2017-06-02T03:16:39.971Z,13
2017-06-02T03:17:47.806Z,13
2017-06-02T03:18:55.294Z,13
2017-06-02T03:20:02.777Z,13
2017-06-02T03:21:09.921Z,13
2017-06-02T03:22:17.403Z,13
2017-06-02T03:23:25.229Z,13
2017-06-02T03:24:32.709Z,13
2017-06-02T03:25:40.194Z,13
2017-06-02T03:26:47.681Z,12.9
2017-06-02T03:27:55.167Z,12.9
2017-06-02T03:29:02.956Z,12.9
2017-06-02T03:30:10.443Z,12.9
2017-06-02T03:31:17.922Z,12.9
2017-06-02T03:32:25.396Z,12.9
2017-06-02T03:33:32.877Z,12.9
2017-06-02T03:34:40.376Z,12.8
2017-06-02T03:35:47.522Z,12.9
2017-06-02T03:36:55.008Z,12.9
2017-06-02T03:38:01.840Z,12.9
2017-06-02T03:39:09.320Z,12.9
2017-06-02T03:40:17.159Z,12.9
2017-06-02T03:41:24.645Z,12.9
2017-06-02T03:42:32.124Z,12.9
2017-06-02T03:43:39.647Z,12.9
2017-06-02T03:44:47.157Z,12.8
2017-06-02T03:45:54.988Z,12.7
2017-06-02T03:47:02.469Z,12.7
2017-06-02T03:48:09.951Z,12.7
2017-06-02T03:49:17.105Z,12.8
2017-06-02T03:50:24.592Z,12.8
2017-06-02T03:51:32.379Z,12.9
2017-06-02T03:52:39.858Z,12.9
2017-06-02T03:53:47.344Z,12.9
2017-06-02T03:54:54.821Z,12.9
2017-06-02T03:56:02.307Z,12.9
2017-06-02T03:57:10.004Z,12.9
2017-06-02T03:58:17.488Z,12.9
2017-06-02T03:59:24.967Z,12.9
2017-06-02T04:00:32.449Z,12.9
2017-06-02T04:01:39.960Z,12.9
2017-06-02T04:02:47.743Z,12.9
2017-06-02T04:03:55.221Z,12.9
2017-06-02T04:05:02.384Z,12.9
2017-06-02T04:06:09.872Z,12.9
2017-06-02T04:07:17.361Z,12.9
2017-06-02T04:08:25.140Z,12.9
2017-06-02T04:09:32.297Z,12.9
2017-06-02T04:10:39.787Z,12.9
2017-06-02T04:11:47.270Z,12.9
2017-06-02T04:12:54.749Z,13
2017-06-02T04:14:02.531Z,12.9
2017-06-02T04:15:10.016Z,12.9
2017-06-02T04:16:17.177Z,12.9
2017-06-02T04:17:24.652Z,12.9
2017-06-02T04:18:32.134Z,12.9
2017-06-02T04:19:39.919Z,12.9
2017-06-02T04:20:47.077Z,13
2017-06-02T04:21:54.230Z,12.9
2017-06-02T04:23:01.762Z,12.9
2017-06-02T04:24:09.252Z,12.9
2017-06-02T04:25:17.040Z,13
2017-06-02T04:26:24.529Z,12.9
2017-06-02T04:27:32.031Z,13
2017-06-02T04:28:39.187Z,13
2017-06-02T04:29:46.339Z,13
2017-06-02T04:30:53.790Z,13.1
2017-06-02T04:32:01.276Z,13.1
2017-06-02T04:33:08.764Z,13.1
2017-06-02T04:34:16.250Z,13.2
2017-06-02T04:35:23.399Z,13.2
2017-06-02T04:36:31.189Z,13.2
2017-06-02T04:37:38.665Z,13.3
2017-06-02T04:38:46.145Z,13.3
2017-06-02T04:39:53.640Z,13.3
2017-06-02T04:41:01.132Z,13.3
2017-06-02T04:42:08.591Z,13.3
2017-06-02T04:43:16.079Z,13.4
2017-06-02T04:44:23.554Z,13.4
2017-06-02T04:45:31.037Z,13.4
2017-06-02T04:46:38.526Z,13.4
2017-06-02T04:47:46.306Z,13.4
2017-06-02T04:48:53.128Z,13.5
2017-06-02T04:50:00.620Z,13.5
2017-06-02T04:51:08.095Z,13.5
2017-06-02T04:52:15.576Z,13.5
2017-06-02T04:53:23.354Z,13.6
2017-06-02T04:54:30.836Z,13.6
2017-06-02T04:55:37.988Z,13.6
2017-06-02T04:56:45.479Z,13.7
2017-06-02T04:57:52.953Z,13.7
2017-06-02T04:59:00.794Z,13.7
2017-06-02T05:00:08.287Z,13.7
2017-06-02T05:01:15.770Z,13.7
2017-06-02T05:02:23.248Z,13.7
2017-06-02T05:03:30.400Z,13.8
2017-06-02T05:04:37.922Z,13.8
2017-06-02T05:05:45.409Z,13.8
2017-06-02T05:06:52.235Z,13.9
2017-06-02T05:07:59.745Z,13.9
2017-06-02T05:09:07.175Z,13.9
2017-06-02T05:10:15.278Z,13.9
2017-06-02T05:11:22.770Z,13.9
2017-06-02T05:12:30.256Z,14
2017-06-02T05:13:37.738Z,14
2017-06-02T05:14:45.214Z,14.1
2017-06-02T05:15:53.054Z,14.1
2017-06-02T05:17:00.206Z,14.1
2017-06-02T05:18:07.357Z,14.2
2017-06-02T05:19:14.514Z,14.2
2017-06-02T05:20:21.999Z,14.3
2017-06-02T05:21:29.830Z,14.4
2017-06-02T05:22:37.308Z,14.4
2017-06-02T05:23:44.798Z,14.5
2017-06-02T05:24:52.289Z,14.6
2017-06-02T05:25:59.778Z,14.6
2017-06-02T05:27:07.612Z,14.8
2017-06-02T05:28:15.095Z,14.9
2017-06-02T05:29:22.609Z,15
2017-06-02T05:30:30.088Z,15.1
2017-06-02T05:31:37.573Z,15.3
2017-06-02T05:32:45.352Z,15.3
2017-06-02T05:33:52.854Z,15.5
2017-06-02T05:35:00.349Z,15.6
2017-06-02T05:36:07.833Z,15.6
2017-06-02T05:37:15.315Z,15.8
2017-06-02T05:38:23.093Z,15.9
2017-06-02T05:39:30.572Z,16
2017-06-02T05:40:38.055Z,16
2017-06-02T05:41:45.539Z,16.1
2017-06-02T05:42:53.032Z,16.2
2017-06-02T05:44:00.865Z,16.3
2017-06-02T05:45:08.348Z,16.4
2017-06-02T05:46:15.509Z,16.6
2017-06-02T05:47:22.335Z,16.8
2017-06-02T05:48:29.494Z,17
2017-06-02T05:49:37.327Z,17.2
2017-06-02T05:50:44.817Z,17.5
2017-06-02T05:51:52.311Z,17.7
2017-06-02T05:52:59.465Z,17.8
2017-06-02T05:54:06.626Z,17.8
2017-06-02T05:55:14.097Z,17.9
2017-06-02T05:56:21.586Z,17.9
2017-06-02T05:57:29.074Z,18
2017-06-02T05:58:36.571Z,18
2017-06-02T05:59:44.052Z,18
2017-06-02T06:00:51.510Z,18.1
2017-06-02T06:01:59.040Z,18.1
2017-06-02T06:03:06.195Z,18.3
2017-06-02T06:04:13.687Z,18.3
2017-06-02T06:05:21.177Z,18.4
2017-06-02T06:06:29.012Z,18.5
2017-06-02T06:07:36.500Z,18.7
2017-06-02T06:08:43.655Z,18.7
2017-06-02T06:09:51.143Z,19
2017-06-02T06:10:58.302Z,19.2
2017-06-02T06:12:05.807Z,19.3
2017-06-02T06:13:13.298Z,19.5
2017-06-02T06:14:20.785Z,19.8
2017-06-02T06:15:27.947Z,19.9
2017-06-02T06:16:35.433Z,20
2017-06-02T06:17:42.890Z,20.1
2017-06-02T06:18:50.373Z,20.3
2017-06-02T06:19:57.858Z,20.4
2017-06-02T06:21:05.346Z,20.5
2017-06-02T06:22:12.831Z,20.7
2017-06-02T06:23:20.342Z,20.8
2017-06-02T06:24:27.827Z,20.7
2017-06-02T06:25:35.316Z,20.6
2017-06-02T06:26:42.809Z,20.8
2017-06-02T06:27:50.295Z,21
2017-06-02T06:28:58.130Z,21.2
2017-06-02T06:30:05.621Z,21.3
2017-06-02T06:31:13.105Z,21.4
2017-06-02T06:32:20.595Z,21.5
2017-06-02T06:33:27.750Z,21.7
2017-06-02T06:34:35.592Z,21.8
2017-06-02T06:35:43.095Z,21.9
2017-06-02T06:36:50.247Z,22
2017-06-02T06:37:57.737Z,22
2017-06-02T06:39:05.232Z,22
2017-06-02T06:40:13.021Z,22
2017-06-02T06:41:20.511Z,22.2
2017-06-02T06:42:27.664Z,22.3
2017-06-02T06:43:35.150Z,22.5
2017-06-02T06:44:42.634Z,22.6
2017-06-02T06:45:50.425Z,22.7
2017-06-02T06:46:57.911Z,22.7
2017-06-02T06:48:05.409Z,22.8
2017-06-02T06:49:12.910Z,22.9
2017-06-02T06:50:20.390Z,23
2017-06-02T06:51:28.180Z,23
2017-06-02T06:52:35.661Z,23
2017-06-02T06:53:43.149Z,22.9
2017-06-02T06:54:50.320Z,22.8
2017-06-02T06:55:57.804Z,23.1
2017-06-02T06:57:05.600Z,23.2
2017-06-02T06:58:13.085Z,23.4
2017-06-02T06:59:20.571Z,23.5
2017-06-02T07:00:28.077Z,23.7
2017-06-02T07:01:35.561Z,23.8
2017-06-02T07:02:43.345Z,23.8
2017-06-02T07:03:50.829Z,23.8
2017-06-02T07:04:58.322Z,23.8
2017-06-02T07:06:05.149Z,23.8
2017-06-02T07:07:12.305Z,23.7
2017-06-02T07:08:20.095Z,23.7
2017-06-02T07:09:27.579Z,23.8
2017-06-02T07:10:35.069Z,23.7
2017-06-02T07:11:42.225Z,23.6
2017-06-02T07:12:49.717Z,23.8
2017-06-02T07:13:57.511Z,24
2017-06-02T07:15:04.991Z,24
2017-06-02T07:16:12.484Z,24
2017-06-02T07:17:19.968Z,24
2017-06-02T07:18:27.126Z,24
2017-06-02T07:19:34.592Z,24.3
2017-06-02T07:20:42.083Z,24.3
2017-06-02T07:21:49.568Z,24.2
2017-06-02T07:22:57.054Z,24.3
2017-06-02T07:24:04.547Z,24.5
2017-06-02T07:25:12.334Z,24.5
2017-06-02T07:26:19.822Z,24.7
2017-06-02T07:27:27.343Z,24.7
2017-06-02T07:28:34.830Z,24.7
2017-06-02T07:29:42.326Z,24.8
2017-06-02T07:30:50.123Z,24.8
2017-06-02T07:31:57.617Z,24.9
2017-06-02T07:33:05.129Z,24.9
2017-06-02T07:34:12.615Z,24.9
2017-06-02T07:35:20.109Z,24.9
2017-06-02T07:36:27.900Z,24.9
2017-06-02T07:37:35.390Z,25.3
2017-06-02T07:38:42.884Z,25.3
2017-06-02T07:39:50.046Z,25.4
2017-06-02T07:40:57.210Z,25.6
2017-06-02T07:42:05.003Z,25.6
2017-06-02T07:43:12.163Z,25.7
2017-06-02T07:44:19.660Z,25.6
2017-06-02T07:45:27.153Z,25.7
2017-06-02T07:46:34.650Z,25.7
2017-06-02T07:47:42.110Z,25.8
2017-06-02T07:48:49.608Z,25.7
2017-06-02T07:49:57.103Z,25.8
2017-06-02T07:51:04.596Z,25.9
2017-06-02T07:52:12.083Z,25.8
2017-06-02T07:53:19.876Z,25.9
2017-06-02T07:54:27.366Z,26.1
2017-06-02T07:55:34.862Z,26.2
2017-06-02T07:56:42.358Z,26
2017-06-02T07:57:49.854Z,26.2
2017-06-02T07:58:57.652Z,26.3
2017-06-02T08:00:04.812Z,26.3
2017-06-02T08:01:12.306Z,26.6
2017-06-02T08:02:19.807Z,26.6
2017-06-02T08:03:27.301Z,26.8
2017-06-02T08:04:35.095Z,26.9
2017-06-02T08:05:42.588Z,26.8
2017-06-02T08:06:50.077Z,26.8
2017-06-02T08:07:57.567Z,26.8
2017-06-02T08:09:05.053Z,26.8
2017-06-02T08:10:12.841Z,27
2017-06-02T08:11:20.006Z,27
2017-06-02T08:12:27.506Z,27.1
2017-06-02T08:13:34.735Z,27.3
2017-06-02T08:14:42.223Z,27.3
2017-06-02T08:15:50.021Z,26.7
2017-06-02T08:16:57.515Z,26.7
2017-06-02T08:18:04.682Z,26.7
2017-06-02T08:19:12.172Z,26.5
2017-06-02T08:20:19.660Z,26.7
2017-06-02T08:21:27.450Z,27
2017-06-02T08:22:34.624Z,27.4
2017-06-02T08:23:41.835Z,27.2
2017-06-02T08:24:49.322Z,27.3
2017-06-02T08:25:56.811Z,27.4
2017-06-02T08:27:04.597Z,27.6
2017-06-02T08:28:12.080Z,27.7
2017-06-02T08:29:19.572Z,27.7
2017-06-02T08:30:27.071Z,27.4
2017-06-02T08:31:34.554Z,27.3
2017-06-02T08:32:42.356Z,27.2
2017-06-02T08:33:49.851Z,27.2
2017-06-02T08:34:57.570Z,27.3
2017-06-02T08:36:05.056Z,27.4
2017-06-02T08:37:12.548Z,27.4
2017-06-02T08:38:20.008Z,27.6
2017-06-02T08:39:27.169Z,27.7
2017-06-02T08:40:34.657Z,27.7
2017-06-02T08:41:41.813Z,27.8
2017-06-02T08:42:49.310Z,27.6
2017-06-02T08:43:57.100Z,27.6
2017-06-02T08:45:04.606Z,27.7
2017-06-02T08:46:11.768Z,27.6
2017-06-02T08:47:18.600Z,27.7
2017-06-02T08:48:25.777Z,27.7
2017-06-02T08:49:33.572Z,28
2017-06-02T08:50:41.063Z,27.9
2017-06-02T08:51:48.552Z,27.9
2017-06-02T08:52:55.721Z,27.6
2017-06-02T08:54:02.884Z,27.2
2017-06-02T08:55:10.672Z,27.3
2017-06-02T08:56:18.166Z,26.9
2017-06-02T08:57:25.664Z,27
2017-06-02T08:58:32.826Z,27.5
2017-06-02T08:59:40.375Z,27.8
2017-06-02T09:00:48.227Z,28
2017-06-02T09:01:55.726Z,28.1
2017-06-02T09:03:02.892Z,28.3
2017-06-02T09:04:10.381Z,28.4
2017-06-02T09:05:17.897Z,28.5
2017-06-02T09:06:25.736Z,28.7
2017-06-02T09:07:33.227Z,28.8
2017-06-02T09:08:40.722Z,29
2017-06-02T09:09:48.211Z,29.1
2017-06-02T09:10:55.708Z,29.3
2017-06-02T09:12:03.556Z,29.3
2017-06-02T09:13:10.733Z,29.2
2017-06-02T09:14:17.906Z,29.1
2017-06-02T09:15:25.398Z,28.9
2017-06-02T09:16:32.557Z,28.3
2017-06-02T09:17:40.062Z,28.1
2017-06-02T09:18:47.553Z,27.8
2017-06-02T09:19:55.046Z,28
2017-06-02T09:21:02.547Z,28.3
2017-06-02T09:22:10.044Z,28.8
2017-06-02T09:23:17.906Z,29
2017-06-02T09:24:25.395Z,29.2
2017-06-02T09:25:32.890Z,29.2
2017-06-02T09:26:40.382Z,29.3
2017-06-02T09:27:47.870Z,29.4
2017-06-02T09:28:55.718Z,29.4
2017-06-02T09:30:03.216Z,29.3
2017-06-02T09:31:10.709Z,29.5
2017-06-02T09:32:18.197Z,29.7
2017-06-02T09:33:25.691Z,29.6
2017-06-02T09:34:33.537Z,29.5
2017-06-02T09:35:41.040Z,29.6
2017-06-02T09:36:48.201Z,29.8
2017-06-02T09:37:55.688Z,29.7
2017-06-02T09:39:03.181Z,29.8
2017-06-02T09:40:11.017Z,29.8
2017-06-02T09:41:18.504Z,29.9
2017-06-02T09:42:25.992Z,30
2017-06-02T09:43:33.481Z,30.1
2017-06-02T09:44:40.972Z,29.9
2017-06-02T09:45:48.768Z,29.9
2017-06-02T09:46:56.255Z,29.8
2017-06-02T09:48:03.747Z,30.1
2017-06-02T09:49:10.909Z,30.2
2017-06-02T09:50:18.069Z,30.2
2017-06-02T09:51:25.867Z,30.2
2017-06-02T09:52:33.374Z,30.2
2017-06-02T09:53:40.867Z,30.2
2017-06-02T09:54:48.359Z,30.3
2017-06-02T09:55:55.852Z,30.1
2017-06-02T09:57:03.645Z,29.9
2017-06-02T09:58:11.132Z,29.9
2017-06-02T09:59:18.633Z,30.2
2017-06-02T10:00:26.126Z,30.4
2017-06-02T10:01:33.618Z,30.2
2017-06-02T10:02:41.409Z,30
2017-06-02T10:03:48.897Z,30.1
2017-06-02T10:04:56.384Z,30.3
2017-06-02T10:06:03.878Z,30.6
2017-06-02T10:07:11.368Z,30.9
2017-06-02T10:08:19.215Z,31.1
2017-06-02T10:09:26.708Z,31.2
2017-06-02T10:10:34.206Z,31.4
2017-06-02T10:11:41.697Z,31.5
2017-06-02T10:12:49.190Z,31.8
2017-06-02T10:13:56.977Z,31.6
2017-06-02T10:15:04.481Z,31.6
2017-06-02T10:16:11.968Z,31.7
2017-06-02T10:17:19.455Z,31.1
2017-06-02T10:18:26.946Z,30.7
2017-06-02T10:19:34.789Z,30.5
2017-06-02T10:20:41.952Z,30.1
2017-06-02T10:21:49.440Z,30.4
2017-06-02T10:22:56.933Z,30.8
2017-06-02T10:24:04.424Z,31.2
2017-06-02T10:25:12.269Z,31.4
2017-06-02T10:26:19.766Z,31.5
2017-06-02T10:27:26.928Z,31.7
2017-06-02T10:28:34.432Z,31.6
2017-06-02T10:29:41.928Z,31.6
2017-06-02T10:30:49.724Z,31.4
2017-06-02T10:31:57.221Z,31.7
2017-06-02T10:33:04.717Z,32
2017-06-02T10:34:12.204Z,32.1
2017-06-02T10:35:19.699Z,32.2
2017-06-02T10:36:27.548Z,32.3
2017-06-02T10:37:35.039Z,32.1
2017-06-02T10:38:42.532Z,32.3
2017-06-02T10:39:49.364Z,32.3
2017-06-02T10:40:56.855Z,32.3
2017-06-02T10:42:04.667Z,32
2017-06-02T10:43:12.165Z,32.2
2017-06-02T10:44:19.659Z,32.1
2017-06-02T10:45:27.156Z,31.6
2017-06-02T10:46:34.652Z,31.3
2017-06-02T10:47:42.444Z,31.1
2017-06-02T10:48:49.932Z,31.1
2017-06-02T10:49:57.429Z,31.1
2017-06-02T10:51:04.931Z,31.6
2017-06-02T10:52:12.665Z,31.8
2017-06-02T10:53:20.458Z,32.1
2017-06-02T10:54:27.957Z,32.3
2017-06-02T10:55:35.455Z,32.2
2017-06-02T10:56:42.949Z,32.2
2017-06-02T10:57:50.441Z,32
2017-06-02T10:58:57.908Z,31.9
2017-06-02T11:00:05.407Z,32.3
2017-06-02T11:01:12.570Z,32.4
2017-06-02T11:02:20.059Z,32.4
2017-06-02T11:03:27.563Z,32.5
2017-06-02T11:04:35.361Z,32.2
2017-06-02T11:05:42.524Z,32.3
2017-06-02T11:06:50.015Z,32.3
2017-06-02T11:07:57.501Z,32.4
2017-06-02T11:09:04.999Z,32.4
2017-06-02T11:10:12.454Z,32.6
2017-06-02T11:11:19.945Z,32.7
2017-06-02T11:12:27.437Z,32.7
2017-06-02T11:13:34.934Z,32.7
2017-06-02T11:14:42.431Z,32.6
2017-06-02T11:15:50.223Z,32.3
2017-06-02T11:16:57.743Z,32.4
2017-06-02T11:18:05.240Z,32.1
2017-06-02T11:19:12.416Z,31.9
2017-06-02T11:20:19.575Z,32.2
2017-06-02T11:21:27.379Z,32.5
2017-06-02T11:22:34.881Z,32.7
2017-06-02T11:23:42.383Z,33
2017-06-02T11:24:49.548Z,33.2
2017-06-02T11:25:56.711Z,33.4
2017-06-02T11:27:04.176Z,33.4
2017-06-02T11:28:11.671Z,33.4
2017-06-02T11:29:18.798Z,33.3
2017-06-02T11:30:26.288Z,33.4
2017-06-02T11:31:33.794Z,32.9
2017-06-02T11:32:41.261Z,32.6
2017-06-02T11:33:48.760Z,33
2017-06-02T11:34:56.258Z,33.1
2017-06-02T11:36:03.450Z,33.1
2017-06-02T11:37:10.954Z,33.2
2017-06-02T11:38:18.755Z,33.2
2017-06-02T11:39:26.247Z,33.1
2017-06-02T11:40:33.745Z,33.1
2017-06-02T11:41:41.241Z,33.1
2017-06-02T11:42:48.733Z,33.1
2017-06-02T11:43:56.532Z,33.1
2017-06-02T11:45:04.029Z,33.1
2017-06-02T11:46:11.521Z,33.2
2017-06-02T11:47:19.014Z,33.4
2017-06-02T11:48:26.184Z,33.6
2017-06-02T11:49:33.981Z,33.8
2017-06-02T11:50:41.472Z,33.8
2017-06-02T11:51:48.641Z,33.8
2017-06-02T11:52:56.143Z,33.5
2017-06-02T11:54:03.326Z,33.1
2017-06-02T11:55:11.128Z,32.6
2017-06-02T11:56:18.633Z,32.8
2017-06-02T11:57:25.758Z,32.7
2017-06-02T11:58:33.254Z,32.4
2017-06-02T11:59:40.747Z,32.5
2017-06-02T12:00:48.550Z,32.6
2017-06-02T12:01:56.046Z,33.1
2017-06-02T12:03:03.545Z,33.5
2017-06-02T12:04:11.035Z,33.6
2017-06-02T12:05:18.203Z,33.5
2017-06-02T12:06:26.031Z,33.5
2017-06-02T12:07:33.522Z,33.6
2017-06-02T12:08:41.020Z,33.1
2017-06-02T12:09:47.884Z,33.1
2017-06-02T12:10:55.058Z,33.1
2017-06-02T12:12:02.864Z,33.3
2017-06-02T12:13:10.359Z,32.9
2017-06-02T12:14:17.195Z,33
2017-06-02T12:15:24.688Z,33.1
2017-06-02T12:16:32.182Z,32.9
2017-06-02T12:17:39.977Z,32.6
2017-06-02T12:18:47.152Z,32.8
2017-06-02T12:19:54.642Z,33
2017-06-02T12:21:02.140Z,33.1
2017-06-02T12:22:09.640Z,33.4
2017-06-02T12:23:17.437Z,33.6
2017-06-02T12:24:24.936Z,33.5
2017-06-02T12:25:32.436Z,33.7
2017-06-02T12:26:39.933Z,34
2017-06-02T12:27:47.435Z,33.7
2017-06-02T12:28:55.234Z,33.7
2017-06-02T12:30:02.727Z,33.8
2017-06-02T12:31:09.580Z,33.7
2017-06-02T12:32:17.082Z,33.4
2017-06-02T12:33:24.576Z,33.1
2017-06-02T12:34:32.375Z,33.1
2017-06-02T12:35:39.875Z,32.9
2017-06-02T12:36:47.371Z,33.4
2017-06-02T12:37:54.878Z,32.8
2017-06-02T12:39:02.378Z,32.5
2017-06-02T12:40:10.179Z,33
2017-06-02T12:41:17.342Z,33
2017-06-02T12:42:24.508Z,33
2017-06-02T12:43:31.999Z,33.2
2017-06-02T12:44:39.527Z,33.6
2017-06-02T12:45:47.315Z,33.8
2017-06-02T12:46:54.486Z,33.7
2017-06-02T12:48:01.992Z,33.8
2017-06-02T12:49:09.488Z,34.2
2017-06-02T12:50:16.980Z,34.4
2017-06-02T12:51:24.461Z,34.1
2017-06-02T12:52:31.958Z,34
2017-06-02T12:53:39.453Z,34.3
2017-06-02T12:54:46.626Z,34.3
2017-06-02T12:55:53.793Z,34.2
2017-06-02T12:57:01.594Z,34.1
2017-06-02T12:58:08.758Z,33.9
2017-06-02T12:59:16.255Z,34.2
2017-06-02T13:00:23.752Z,34.4
2017-06-02T13:01:31.252Z,34.2
2017-06-02T13:02:39.053Z,34.5
2017-06-02T13:03:46.551Z,34.6
2017-06-02T13:04:54.052Z,34.6
2017-06-02T13:06:01.561Z,34.6
2017-06-02T13:07:09.056Z,34.6
2017-06-02T13:08:16.900Z,34.5
2017-06-02T13:09:24.398Z,34.4
2017-06-02T13:10:31.907Z,34.2
2017-06-02T13:11:39.402Z,34
2017-06-02T13:12:47.100Z,33.7
2017-06-02T13:13:54.895Z,33.9
2017-06-02T13:15:02.392Z,34.5
2017-06-02T13:16:09.893Z,34.8
2017-06-02T13:17:17.396Z,34.9
2017-06-02T13:18:24.888Z,34.9
2017-06-02T13:19:32.690Z,35.1
2017-06-02T13:20:40.185Z,35.1
2017-06-02T13:21:47.690Z,35.1
2017-06-02T13:22:55.185Z,35.3
2017-06-02T13:24:02.680Z,35.3
2017-06-02T13:25:10.530Z,35.4
2017-06-02T13:26:18.023Z,35.5
2017-06-02T13:27:25.527Z,35.6
2017-06-02T13:28:33.018Z,35.6
2017-06-02T13:29:40.520Z,35.4
2017-06-02T13:30:48.370Z,35.4
2017-06-02T13:31:55.540Z,35.5
2017-06-02T13:33:03.038Z,35.6
2017-06-02T13:34:10.203Z,35.3
2017-06-02T13:35:17.703Z,35
2017-06-02T13:36:25.549Z,34.9
2017-06-02T13:37:32.714Z,34.9
2017-06-02T13:38:40.211Z,35.2
2017-06-02T13:39:47.704Z,35.3
2017-06-02T13:40:55.200Z,35.3
2017-06-02T13:42:03.057Z,35.3
2017-06-02T13:43:10.224Z,35.5
2017-06-02T13:44:17.720Z,35.8
2017-06-02T13:45:24.892Z,35.3
2017-06-02T13:46:32.389Z,35
2017-06-02T13:47:40.186Z,35.2
2017-06-02T13:48:47.379Z,35.2
2017-06-02T13:49:54.879Z,34.9
2017-06-02T13:51:01.708Z,35.1
2017-06-02T13:52:09.211Z,34.8
2017-06-02T13:53:17.063Z,34.5
2017-06-02T13:54:24.564Z,34.4
2017-06-02T13:55:31.745Z,34.3
2017-06-02T13:56:39.245Z,34.5
2017-06-02T13:57:46.752Z,34.8
2017-06-02T13:58:54.552Z,35.1
2017-06-02T14:00:01.727Z,35.4
2017-06-02T14:01:08.917Z,35.3
2017-06-02T14:02:16.415Z,35.2
2017-06-02T14:03:23.914Z,34.8
2017-06-02T14:04:31.766Z,34.4
2017-06-02T14:05:39.262Z,34.4
2017-06-02T14:06:46.761Z,34
2017-06-02T14:07:54.258Z,33.6
2017-06-02T14:09:01.427Z,33.4
2017-06-02T14:10:09.273Z,33.1
2017-06-02T14:11:16.771Z,33.1
2017-06-02T14:12:23.940Z,33.2
2017-06-02T14:13:31.443Z,33.6
2017-06-02T14:14:39.162Z,34.2
2017-06-02T14:15:47.011Z,34.9
2017-06-02T14:16:54.510Z,35.3
2017-06-02T14:18:02.005Z,35.3
2017-06-02T14:19:09.508Z,35.2
2017-06-02T14:20:17.008Z,35
2017-06-02T14:21:24.808Z,34.6
2017-06-02T14:22:31.976Z,34.2
2017-06-02T14:23:39.473Z,33.8
2017-06-02T14:24:46.644Z,33.5
2017-06-02T14:25:54.144Z,33.7
2017-06-02T14:27:01.940Z,33.8
2017-06-02T14:28:09.440Z,34.2
2017-06-02T14:29:16.934Z,34.1
2017-06-02T14:30:24.435Z,33.9
2017-06-02T14:31:31.939Z,34
2017-06-02T14:32:39.426Z,33.9
2017-06-02T14:33:46.928Z,33.5
2017-06-02T14:34:53.775Z,33.3
2017-06-02T14:36:01.273Z,33.4
2017-06-02T14:37:08.778Z,33.8
2017-06-02T14:38:16.626Z,34.3
2017-06-02T14:39:23.811Z,34.1
2017-06-02T14:40:31.351Z,34
2017-06-02T14:41:38.849Z,33.9
2017-06-02T14:42:46.028Z,33.6
2017-06-02T14:43:53.878Z,33.4
2017-06-02T14:45:01.056Z,33.8
2017-06-02T14:46:08.554Z,34.3
2017-06-02T14:47:15.751Z,34.5
2017-06-02T14:48:23.252Z,34.6
2017-06-02T14:49:31.102Z,34.4
2017-06-02T14:50:38.603Z,34.2
2017-06-02T14:51:46.104Z,34.7
2017-06-02T14:52:53.641Z,34.6
2017-06-02T14:54:01.138Z,34.5
2017-06-02T14:55:08.992Z,34.6
2017-06-02T14:56:16.492Z,34.9
2017-06-02T14:57:23.985Z,35.1
2017-06-02T14:58:31.491Z,35.3
2017-06-02T14:59:38.998Z,35.3
2017-06-02T15:00:46.794Z,34.7
2017-06-02T15:01:54.313Z,34.4
2017-06-02T15:03:01.806Z,34.3
2017-06-02T15:04:09.309Z,34.6
2017-06-02T15:05:16.809Z,34.9